TGW437 WMKP-WSSS
Flight info
| Callsign | TGW437 |
|---|---|
| Flight time | 1h 16m |
| Altitude | 37000 |
| Route | ANBIK Y507 VBA A464 VKL Y507 MAKNA Y511 TOPOR A464 ARAMA LELI3B WSSS/20R |
| Aircraft | A320/M-V/N |
Departure
| Time | 2026-05-06 09:23 |
|---|---|
| Airport | Penang International Airport (WMKP) |
Arrival
| Time | 2026-05-06 10:40 |
|---|---|
| Airport | Singapore Changi Airport (WSSS) |
| Time | Latitude | Longitude | Altitude | Speed | Heading |
|---|---|---|---|---|---|
| 2026-05-06 09:08 | 5.29250 | 100.26671 | 23 ft | 0 kts | 311° |
| 2026-05-06 09:11 | 5.29243 | 100.26680 | 6 ft | 3 kts | 310° |
| 2026-05-06 09:11 | 5.29230 | 100.26695 | 22 ft | 3 kts | 307° |
| 2026-05-06 09:12 | 5.29218 | 100.26712 | 22 ft | 3 kts | 299° |
| 2026-05-06 09:12 | 5.29210 | 100.26730 | 5 ft | 3 kts | 279° |
| 2026-05-06 09:12 | 5.29210 | 100.26747 | 21 ft | 2 kts | 231° |
| 2026-05-06 09:12 | 5.29212 | 100.26750 | 21 ft | 0 kts | 221° |
| 2026-05-06 09:17 | 5.29199 | 100.26739 | 39 ft | 4 kts | 221° |
| 2026-05-06 09:18 | 5.29171 | 100.26713 | 25 ft | 7 kts | 221° |
| 2026-05-06 09:18 | 5.29127 | 100.26675 | 24 ft | 10 kts | 220° |
| 2026-05-06 09:18 | 5.29064 | 100.26618 | 24 ft | 14 kts | 222° |
| 2026-05-06 09:18 | 5.28973 | 100.26618 | 23 ft | 15 kts | 142° |
| 2026-05-06 09:19 | 5.28885 | 100.26664 | 23 ft | 16 kts | 193° |
| 2026-05-06 09:19 | 5.28792 | 100.26591 | 23 ft | 18 kts | 213° |
| 2026-05-06 09:19 | 5.28693 | 100.26589 | 23 ft | 7 kts | 151° |
| 2026-05-06 09:19 | 5.28680 | 100.26599 | 23 ft | 0 kts | 140° |
| 2026-05-06 09:20 | 5.28679 | 100.26600 | 23 ft | 1 kts | 140° |
| 2026-05-06 09:20 | 5.28667 | 100.26613 | 23 ft | 4 kts | 129° |
| 2026-05-06 09:21 | 5.28647 | 100.26646 | 23 ft | 7 kts | 112° |
| 2026-05-06 09:21 | 5.28643 | 100.26702 | 23 ft | 10 kts | 72° |
| 2026-05-06 09:21 | 5.28680 | 100.26744 | 23 ft | 1 kts | 44° |
| 2026-05-06 09:21 | 5.28686 | 100.26750 | 23 ft | 2 kts | 44° |
| 2026-05-06 09:22 | 5.28704 | 100.26768 | 23 ft | 5 kts | 44° |
| 2026-05-06 09:22 | 5.28740 | 100.26801 | 24 ft | 14 kts | 43° |
| 2026-05-06 09:22 | 5.28997 | 100.27029 | 28 ft | 87 kts | 42° |
| 2026-05-06 09:22 | 5.29601 | 100.27581 | 25 ft | 144 kts | 42° |
| 2026-05-06 09:23 | 5.30449 | 100.28354 | 122 ft | 180 kts | 42° |
| 2026-05-06 09:23 | 5.31385 | 100.29207 | 802 ft | 182 kts | 42° |
| 2026-05-06 09:23 | 5.32298 | 100.30104 | 1541 ft | 186 kts | 51° |
| 2026-05-06 09:23 | 5.32860 | 100.31285 | 2047 ft | 198 kts | 79° |
| 2026-05-06 09:24 | 5.32884 | 100.32753 | 2175 ft | 223 kts | 97° |
| 2026-05-06 09:24 | 5.32629 | 100.34359 | 2490 ft | 245 kts | 102° |
| 2026-05-06 09:24 | 5.32299 | 100.36125 | 2981 ft | 267 kts | 101° |
| 2026-05-06 09:24 | 5.31982 | 100.37956 | 3879 ft | 272 kts | 99° |
| 2026-05-06 09:25 | 5.31693 | 100.39856 | 4649 ft | 279 kts | 98° |
| 2026-05-06 09:25 | 5.31438 | 100.41793 | 5388 ft | 281 kts | 97° |
| 2026-05-06 09:25 | 5.31011 | 100.43704 | 6349 ft | 284 kts | 114° |
| 2026-05-06 09:25 | 5.29896 | 100.45334 | 7282 ft | 285 kts | 133° |
| 2026-05-06 09:26 | 5.28550 | 100.46804 | 8236 ft | 287 kts | 133° |
| 2026-05-06 09:26 | 5.27194 | 100.48281 | 9156 ft | 289 kts | 133° |
| 2026-05-06 09:26 | 5.25832 | 100.49770 | 10034 ft | 291 kts | 132° |
| 2026-05-06 09:26 | 5.24423 | 100.51316 | 10438 ft | 312 kts | 132° |
| 2026-05-06 09:27 | 5.22913 | 100.52961 | 10851 ft | 327 kts | 132° |
| 2026-05-06 09:27 | 5.21369 | 100.54620 | 11526 ft | 333 kts | 132° |
| 2026-05-06 09:27 | 5.19776 | 100.56323 | 12223 ft | 337 kts | 132° |
| 2026-05-06 09:27 | 5.18163 | 100.58043 | 12918 ft | 340 kts | 132° |
| 2026-05-06 09:28 | 5.16529 | 100.59781 | 13610 ft | 344 kts | 132° |
| 2026-05-06 09:28 | 5.14885 | 100.61535 | 14293 ft | 347 kts | 132° |
| 2026-05-06 09:28 | 5.13225 | 100.63308 | 14959 ft | 350 kts | 132° |
| 2026-05-06 09:28 | 5.11550 | 100.65094 | 15598 ft | 353 kts | 132° |
| 2026-05-06 09:29 | 5.09858 | 100.66898 | 16220 ft | 357 kts | 132° |
| 2026-05-06 09:29 | 5.08153 | 100.68718 | 16847 ft | 360 kts | 132° |
| 2026-05-06 09:29 | 5.06435 | 100.70557 | 17444 ft | 363 kts | 131° |
| 2026-05-06 09:29 | 5.04727 | 100.72390 | 18005 ft | 366 kts | 131° |
| 2026-05-06 09:30 | 5.02981 | 100.74263 | 18599 ft | 369 kts | 131° |
| 2026-05-06 09:30 | 5.01221 | 100.76150 | 19172 ft | 372 kts | 132° |
| 2026-05-06 09:30 | 4.99440 | 100.78053 | 19731 ft | 376 kts | 133° |
| 2026-05-06 09:30 | 4.97485 | 100.79806 | 20277 ft | 380 kts | 143° |
| 2026-05-06 09:31 | 4.95190 | 100.81144 | 20796 ft | 385 kts | 155° |
| 2026-05-06 09:31 | 4.92639 | 100.81991 | 21319 ft | 389 kts | 167° |
| 2026-05-06 09:31 | 4.89952 | 100.82429 | 21819 ft | 393 kts | 170° |
| 2026-05-06 09:31 | 4.87239 | 100.82846 | 22242 ft | 396 kts | 170° |
| 2026-05-06 09:32 | 4.84499 | 100.83279 | 22602 ft | 401 kts | 170° |
| 2026-05-06 09:32 | 4.81779 | 100.83714 | 23046 ft | 403 kts | 170° |
| 2026-05-06 09:32 | 4.79008 | 100.84156 | 23562 ft | 404 kts | 170° |
| 2026-05-06 09:32 | 4.76227 | 100.84600 | 24025 ft | 406 kts | 170° |
| 2026-05-06 09:33 | 4.73430 | 100.85048 | 24426 ft | 409 kts | 170° |
| 2026-05-06 09:33 | 4.70602 | 100.85496 | 24772 ft | 413 kts | 170° |
| 2026-05-06 09:33 | 4.67759 | 100.85944 | 25179 ft | 415 kts | 171° |
| 2026-05-06 09:33 | 4.64901 | 100.86393 | 25591 ft | 417 kts | 171° |
| 2026-05-06 09:34 | 4.62031 | 100.86843 | 26043 ft | 418 kts | 171° |
| 2026-05-06 09:34 | 4.59148 | 100.87292 | 26481 ft | 420 kts | 171° |
| 2026-05-06 09:34 | 4.56256 | 100.87744 | 26876 ft | 422 kts | 171° |
| 2026-05-06 09:34 | 4.53389 | 100.88196 | 27242 ft | 424 kts | 171° |
| 2026-05-06 09:35 | 4.50467 | 100.88660 | 27617 ft | 426 kts | 171° |
| 2026-05-06 09:35 | 4.47529 | 100.89160 | 27930 ft | 429 kts | 167° |
| 2026-05-06 09:35 | 4.44673 | 100.90037 | 28235 ft | 431 kts | 158° |
| 2026-05-06 09:35 | 4.41946 | 100.91314 | 28554 ft | 434 kts | 153° |
| 2026-05-06 09:36 | 4.39229 | 100.92646 | 28889 ft | 436 kts | 154° |
| 2026-05-06 09:36 | 4.36490 | 100.93985 | 29235 ft | 439 kts | 154° |
| 2026-05-06 09:36 | 4.33739 | 100.95325 | 29570 ft | 441 kts | 154° |
| 2026-05-06 09:36 | 4.30967 | 100.96672 | 29923 ft | 444 kts | 154° |
| 2026-05-06 09:37 | 4.28186 | 100.98021 | 30247 ft | 446 kts | 154° |
| 2026-05-06 09:37 | 4.25387 | 100.99382 | 30576 ft | 448 kts | 154° |
| 2026-05-06 09:37 | 4.22611 | 101.00733 | 30873 ft | 451 kts | 154° |
| 2026-05-06 09:37 | 4.19779 | 101.02112 | 31173 ft | 454 kts | 154° |
| 2026-05-06 09:38 | 4.16939 | 101.03499 | 31471 ft | 456 kts | 154° |
| 2026-05-06 09:38 | 4.14087 | 101.04889 | 31868 ft | 456 kts | 154° |
| 2026-05-06 09:38 | 4.11237 | 101.06278 | 32295 ft | 455 kts | 154° |
| 2026-05-06 09:38 | 4.08387 | 101.07666 | 32700 ft | 455 kts | 154° |
| 2026-05-06 09:39 | 4.05543 | 101.09048 | 33114 ft | 454 kts | 154° |
| 2026-05-06 09:39 | 4.02701 | 101.10431 | 33498 ft | 454 kts | 154° |
| 2026-05-06 09:39 | 3.99856 | 101.11815 | 33871 ft | 454 kts | 154° |
| 2026-05-06 09:39 | 3.97015 | 101.13199 | 34234 ft | 454 kts | 154° |
| 2026-05-06 09:40 | 3.94172 | 101.14580 | 34585 ft | 454 kts | 154° |
| 2026-05-06 09:40 | 3.91331 | 101.15958 | 34950 ft | 453 kts | 154° |
| 2026-05-06 09:40 | 3.85705 | 101.18691 | 35686 ft | 451 kts | 154° |
| 2026-05-06 09:41 | 3.82887 | 101.20064 | 36048 ft | 450 kts | 154° |
| 2026-05-06 09:41 | 3.80076 | 101.21434 | 36372 ft | 449 kts | 154° |
| 2026-05-06 09:41 | 3.77270 | 101.22803 | 36662 ft | 449 kts | 154° |
| 2026-05-06 09:41 | 3.74465 | 101.24193 | 36766 ft | 448 kts | 153° |
| 2026-05-06 09:42 | 3.68950 | 101.27060 | 36783 ft | 445 kts | 152° |
| 2026-05-06 09:42 | 3.63476 | 101.29962 | 36783 ft | 445 kts | 152° |
| 2026-05-06 09:43 | 3.57995 | 101.32839 | 36784 ft | 445 kts | 152° |
| 2026-05-06 09:43 | 3.52540 | 101.35679 | 36782 ft | 445 kts | 153° |
| 2026-05-06 09:44 | 3.47042 | 101.38528 | 36786 ft | 445 kts | 153° |
| 2026-05-06 09:44 | 3.41543 | 101.41383 | 36791 ft | 445 kts | 153° |
| 2026-05-06 09:45 | 3.36045 | 101.44245 | 36806 ft | 445 kts | 152° |
| 2026-05-06 09:45 | 3.30551 | 101.47078 | 36837 ft | 443 kts | 153° |
| 2026-05-06 09:46 | 3.24970 | 101.49674 | 36839 ft | 442 kts | 155° |
| 2026-05-06 09:46 | 3.19360 | 101.52168 | 36840 ft | 440 kts | 155° |
| 2026-05-06 09:47 | 3.13828 | 101.54678 | 36840 ft | 439 kts | 155° |
| 2026-05-06 09:47 | 3.08284 | 101.57251 | 36835 ft | 439 kts | 154° |
| 2026-05-06 09:48 | 3.02745 | 101.59832 | 36832 ft | 439 kts | 155° |
| 2026-05-06 09:48 | 2.97206 | 101.62389 | 36832 ft | 438 kts | 155° |
| 2026-05-06 09:49 | 2.91661 | 101.64934 | 36827 ft | 438 kts | 155° |
| 2026-05-06 09:49 | 2.86122 | 101.67487 | 36827 ft | 438 kts | 155° |
| 2026-05-06 09:50 | 2.80619 | 101.70022 | 36830 ft | 438 kts | 155° |
| 2026-05-06 09:50 | 2.75081 | 101.72576 | 36832 ft | 438 kts | 155° |
| 2026-05-06 09:51 | 2.69555 | 101.75154 | 36824 ft | 438 kts | 154° |
| 2026-05-06 09:51 | 2.64077 | 101.77826 | 36832 ft | 438 kts | 153° |
| 2026-05-06 09:52 | 2.58610 | 101.80527 | 36830 ft | 438 kts | 153° |
| 2026-05-06 09:52 | 2.53490 | 101.83773 | 36833 ft | 437 kts | 137° |
| 2026-05-06 09:53 | 2.49606 | 101.88387 | 36815 ft | 437 kts | 127° |
| 2026-05-06 09:53 | 2.45952 | 101.93245 | 36828 ft | 438 kts | 127° |
| 2026-05-06 09:54 | 2.42280 | 101.98109 | 36832 ft | 438 kts | 127° |
| 2026-05-06 09:54 | 2.38611 | 102.02975 | 36826 ft | 438 kts | 127° |
| 2026-05-06 09:55 | 2.34948 | 102.07846 | 36812 ft | 440 kts | 127° |
| 2026-05-06 09:55 | 2.31249 | 102.12756 | 36812 ft | 443 kts | 127° |
| 2026-05-06 09:56 | 2.27559 | 102.17651 | 36810 ft | 443 kts | 127° |
| 2026-05-06 09:56 | 2.23850 | 102.22575 | 36812 ft | 443 kts | 127° |
| 2026-05-06 09:57 | 2.20140 | 102.27497 | 36811 ft | 443 kts | 127° |
| 2026-05-06 09:57 | 2.16424 | 102.32423 | 36818 ft | 444 kts | 127° |
| 2026-05-06 09:58 | 2.12708 | 102.37347 | 36820 ft | 444 kts | 127° |
| 2026-05-06 09:58 | 2.09008 | 102.42252 | 36761 ft | 447 kts | 127° |
| 2026-05-06 09:59 | 2.07135 | 102.44740 | 36509 ft | 449 kts | 127° |
| 2026-05-06 09:59 | 2.05262 | 102.47228 | 36264 ft | 446 kts | 127° |
| 2026-05-06 09:59 | 2.03403 | 102.49694 | 35835 ft | 442 kts | 127° |
| 2026-05-06 09:59 | 2.01560 | 102.52140 | 35370 ft | 439 kts | 127° |
| 2026-05-06 10:00 | 1.99731 | 102.54570 | 34894 ft | 437 kts | 127° |
| 2026-05-06 10:00 | 1.97908 | 102.56991 | 34415 ft | 434 kts | 127° |
| 2026-05-06 10:00 | 1.96094 | 102.59400 | 33920 ft | 432 kts | 127° |
| 2026-05-06 10:00 | 1.94292 | 102.61795 | 33432 ft | 430 kts | 127° |
| 2026-05-06 10:01 | 1.92501 | 102.64171 | 32939 ft | 427 kts | 127° |
| 2026-05-06 10:01 | 1.90722 | 102.66531 | 32449 ft | 424 kts | 127° |
| 2026-05-06 10:01 | 1.88957 | 102.68878 | 31966 ft | 421 kts | 127° |
| 2026-05-06 10:01 | 1.87229 | 102.71176 | 31499 ft | 417 kts | 127° |
| 2026-05-06 10:02 | 1.85492 | 102.73486 | 31037 ft | 414 kts | 127° |
| 2026-05-06 10:02 | 1.83766 | 102.75775 | 30575 ft | 411 kts | 127° |
| 2026-05-06 10:02 | 1.82053 | 102.78044 | 30139 ft | 407 kts | 127° |
| 2026-05-06 10:02 | 1.80356 | 102.80292 | 29700 ft | 403 kts | 127° |
| 2026-05-06 10:03 | 1.78677 | 102.82517 | 29282 ft | 399 kts | 127° |
| 2026-05-06 10:03 | 1.77012 | 102.84726 | 28866 ft | 396 kts | 127° |
| 2026-05-06 10:03 | 1.75365 | 102.86917 | 28458 ft | 392 kts | 126° |
| 2026-05-06 10:03 | 1.73764 | 102.89108 | 28064 ft | 388 kts | 122° |
| 2026-05-06 10:04 | 1.72455 | 102.91455 | 27670 ft | 385 kts | 117° |
| 2026-05-06 10:04 | 1.71207 | 102.93810 | 27267 ft | 382 kts | 117° |
| 2026-05-06 10:04 | 1.69961 | 102.96149 | 26873 ft | 379 kts | 117° |
| 2026-05-06 10:04 | 1.68741 | 102.98433 | 26459 ft | 376 kts | 117° |
| 2026-05-06 10:05 | 1.67509 | 103.00736 | 26040 ft | 374 kts | 117° |
| 2026-05-06 10:05 | 1.66291 | 103.03017 | 25619 ft | 371 kts | 117° |
| 2026-05-06 10:05 | 1.65082 | 103.05283 | 25203 ft | 368 kts | 116° |
| 2026-05-06 10:05 | 1.63881 | 103.07534 | 24779 ft | 366 kts | 117° |
| 2026-05-06 10:06 | 1.62688 | 103.09769 | 24343 ft | 363 kts | 116° |
| 2026-05-06 10:06 | 1.61504 | 103.11988 | 23909 ft | 361 kts | 116° |
| 2026-05-06 10:06 | 1.60328 | 103.14192 | 23472 ft | 358 kts | 116° |
| 2026-05-06 10:06 | 1.59160 | 103.16384 | 23041 ft | 356 kts | 116° |
| 2026-05-06 10:07 | 1.58000 | 103.18560 | 22604 ft | 354 kts | 116° |
| 2026-05-06 10:07 | 1.56846 | 103.20723 | 22171 ft | 351 kts | 116° |
| 2026-05-06 10:07 | 1.55714 | 103.22843 | 21748 ft | 349 kts | 116° |
| 2026-05-06 10:07 | 1.54576 | 103.24977 | 21321 ft | 347 kts | 116° |
| 2026-05-06 10:08 | 1.53444 | 103.27099 | 20895 ft | 345 kts | 116° |
| 2026-05-06 10:08 | 1.52318 | 103.29207 | 20472 ft | 343 kts | 117° |
| 2026-05-06 10:08 | 1.51575 | 103.30594 | 20193 ft | 341 kts | 117° |
| 2026-05-06 10:08 | 1.50083 | 103.33384 | 19629 ft | 339 kts | 117° |
| 2026-05-06 10:09 | 1.48980 | 103.35452 | 19209 ft | 337 kts | 117° |
| 2026-05-06 10:09 | 1.47879 | 103.37514 | 18793 ft | 335 kts | 117° |
| 2026-05-06 10:09 | 1.46832 | 103.39589 | 18374 ft | 333 kts | 110° |
| 2026-05-06 10:09 | 1.46375 | 103.41046 | 18100 ft | 331 kts | 101° |
| 2026-05-06 10:10 | 1.46146 | 103.43322 | 17689 ft | 329 kts | 88° |
| 2026-05-06 10:10 | 1.46507 | 103.46311 | 17151 ft | 326 kts | 82° |
| 2026-05-06 10:10 | 1.46829 | 103.48553 | 16745 ft | 325 kts | 82° |
| 2026-05-06 10:10 | 1.47042 | 103.50058 | 16473 ft | 324 kts | 82° |
| 2026-05-06 10:11 | 1.47350 | 103.52254 | 16118 ft | 321 kts | 82° |
| 2026-05-06 10:11 | 1.47656 | 103.54460 | 15692 ft | 321 kts | 82° |
| 2026-05-06 10:11 | 1.47960 | 103.56660 | 15343 ft | 318 kts | 82° |
| 2026-05-06 10:11 | 1.48263 | 103.58849 | 14964 ft | 316 kts | 82° |
| 2026-05-06 10:12 | 1.48566 | 103.61024 | 14531 ft | 317 kts | 82° |
| 2026-05-06 10:12 | 1.48869 | 103.63193 | 14167 ft | 315 kts | 82° |
| 2026-05-06 10:12 | 1.49169 | 103.65348 | 13859 ft | 312 kts | 82° |
| 2026-05-06 10:12 | 1.49467 | 103.67489 | 13593 ft | 307 kts | 82° |
| 2026-05-06 10:13 | 1.49758 | 103.69563 | 13467 ft | 297 kts | 82° |
| 2026-05-06 10:13 | 1.50039 | 103.71580 | 13340 ft | 289 kts | 83° |
| 2026-05-06 10:13 | 1.50294 | 103.74172 | 13169 ft | 278 kts | 85° |
| 2026-05-06 10:13 | 1.50393 | 103.75467 | 13024 ft | 275 kts | 85° |
| 2026-05-06 10:14 | 1.50525 | 103.77339 | 12770 ft | 273 kts | 86° |
| 2026-05-06 10:14 | 1.50657 | 103.79226 | 12482 ft | 272 kts | 86° |
| 2026-05-06 10:14 | 1.50793 | 103.81104 | 12193 ft | 271 kts | 85° |
| 2026-05-06 10:14 | 1.51155 | 103.82930 | 11733 ft | 267 kts | 69° |
| 2026-05-06 10:15 | 1.52032 | 103.84574 | 11058 ft | 271 kts | 56° |
| 2026-05-06 10:15 | 1.53084 | 103.86159 | 10348 ft | 276 kts | 57° |
| 2026-05-06 10:15 | 1.54145 | 103.87773 | 9644 ft | 280 kts | 57° |
| 2026-05-06 10:15 | 1.55213 | 103.89412 | 8948 ft | 283 kts | 57° |
| 2026-05-06 10:16 | 1.56290 | 103.91069 | 8237 ft | 286 kts | 57° |
| 2026-05-06 10:16 | 1.57397 | 103.92772 | 7570 ft | 298 kts | 57° |
| 2026-05-06 10:16 | 1.58513 | 103.94487 | 7398 ft | 289 kts | 57° |
| 2026-05-06 10:16 | 1.59561 | 103.96158 | 7266 ft | 279 kts | 64° |
| 2026-05-06 10:17 | 1.60088 | 103.97979 | 7143 ft | 269 kts | 81° |
| 2026-05-06 10:17 | 1.60400 | 103.99793 | 7019 ft | 261 kts | 81° |
| 2026-05-06 10:17 | 1.60702 | 104.01555 | 6688 ft | 262 kts | 81° |
| 2026-05-06 10:17 | 1.61009 | 104.03356 | 6273 ft | 266 kts | 81° |
| 2026-05-06 10:18 | 1.61228 | 104.05198 | 5831 ft | 269 kts | 95° |
| 2026-05-06 10:18 | 1.60583 | 104.06929 | 5389 ft | 270 kts | 130° |
| 2026-05-06 10:18 | 1.59060 | 104.07986 | 4888 ft | 271 kts | 163° |
| 2026-05-06 10:18 | 1.57204 | 104.08009 | 4247 ft | 269 kts | 200° |
| 2026-05-06 10:19 | 1.55718 | 104.06982 | 3864 ft | 257 kts | 228° |
| 2026-05-06 10:19 | 1.54474 | 104.05776 | 3543 ft | 244 kts | 210° |
| 2026-05-06 10:19 | 1.52912 | 104.05244 | 3246 ft | 234 kts | 196° |
| 2026-05-06 10:19 | 1.51383 | 104.04711 | 2927 ft | 233 kts | 202° |
| 2026-05-06 10:20 | 1.49889 | 104.04083 | 2625 ft | 233 kts | 203° |
| 2026-05-06 10:20 | 1.48400 | 104.03449 | 2320 ft | 232 kts | 203° |
| 2026-05-06 10:20 | 1.46929 | 104.02826 | 2004 ft | 225 kts | 203° |
| 2026-05-06 10:20 | 1.45523 | 104.02233 | 1715 ft | 215 kts | 202° |
| 2026-05-06 10:21 | 1.44210 | 104.01678 | 1457 ft | 193 kts | 202° |
| 2026-05-06 10:21 | 1.43025 | 104.01178 | 1216 ft | 176 kts | 203° |
| 2026-05-06 10:21 | 1.41966 | 104.00731 | 986 ft | 160 kts | 203° |
| 2026-05-06 10:21 | 1.40991 | 104.00319 | 786 ft | 148 kts | 202° |
| 2026-05-06 10:22 | 1.40054 | 103.99924 | 586 ft | 145 kts | 203° |
| 2026-05-06 10:22 | 1.39126 | 103.99531 | 395 ft | 145 kts | 203° |
| 2026-05-06 10:22 | 1.38207 | 103.99127 | 204 ft | 144 kts | 202° |
| 2026-05-06 10:22 | 1.37281 | 103.98748 | 49 ft | 142 kts | 203° |
| 2026-05-06 10:23 | 1.36547 | 103.98426 | 33 ft | 115 kts | 203° |
| 2026-05-06 10:23 | 1.35674 | 103.98072 | 249 ft | 157 kts | 202° |
| 2026-05-06 10:23 | 1.34523 | 103.97600 | 740 ft | 199 kts | 202° |
| 2026-05-06 10:23 | 1.33211 | 103.97056 | 1374 ft | 207 kts | 202° |
| 2026-05-06 10:24 | 1.31864 | 103.96499 | 2004 ft | 210 kts | 203° |
| 2026-05-06 10:24 | 1.30521 | 103.95921 | 2745 ft | 210 kts | 204° |
| 2026-05-06 10:24 | 1.29187 | 103.95340 | 3622 ft | 210 kts | 204° |
| 2026-05-06 10:24 | 1.27851 | 103.94771 | 4440 ft | 213 kts | 199° |
| 2026-05-06 10:25 | 1.26360 | 103.94644 | 4878 ft | 220 kts | 167° |
| 2026-05-06 10:25 | 1.24955 | 103.95204 | 5002 ft | 218 kts | 146° |
| 2026-05-06 10:25 | 1.23725 | 103.96077 | 5029 ft | 216 kts | 142° |
| 2026-05-06 10:25 | 1.22638 | 103.97090 | 5032 ft | 214 kts | 121° |
| 2026-05-06 10:26 | 1.22241 | 103.98527 | 5044 ft | 233 kts | 87° |
| 2026-05-06 10:26 | 1.22740 | 104.00117 | 5036 ft | 249 kts | 56° |
| 2026-05-06 10:26 | 1.24006 | 104.01302 | 5032 ft | 254 kts | 33° |
| 2026-05-06 10:26 | 1.25525 | 104.02219 | 5028 ft | 256 kts | 30° |
| 2026-05-06 10:27 | 1.27070 | 104.03102 | 5032 ft | 257 kts | 30° |
| 2026-05-06 10:27 | 1.28626 | 104.03984 | 5033 ft | 257 kts | 30° |
| 2026-05-06 10:27 | 1.30165 | 104.04846 | 5032 ft | 258 kts | 29° |
| 2026-05-06 10:27 | 1.31734 | 104.05717 | 5033 ft | 258 kts | 29° |
| 2026-05-06 10:28 | 1.33304 | 104.06588 | 5033 ft | 258 kts | 29° |
| 2026-05-06 10:28 | 1.34873 | 104.07459 | 5030 ft | 258 kts | 29° |
| 2026-05-06 10:28 | 1.36443 | 104.08332 | 5033 ft | 258 kts | 29° |
| 2026-05-06 10:28 | 1.38011 | 104.09206 | 5032 ft | 258 kts | 29° |
| 2026-05-06 10:29 | 1.39576 | 104.10080 | 5033 ft | 258 kts | 29° |
| 2026-05-06 10:29 | 1.41145 | 104.10956 | 5032 ft | 258 kts | 29° |
| 2026-05-06 10:29 | 1.42705 | 104.11825 | 4801 ft | 256 kts | 29° |
| 2026-05-06 10:29 | 1.44258 | 104.12691 | 4493 ft | 255 kts | 29° |
| 2026-05-06 10:30 | 1.45808 | 104.13556 | 4182 ft | 254 kts | 29° |
| 2026-05-06 10:30 | 1.47342 | 104.14411 | 3946 ft | 250 kts | 29° |
| 2026-05-06 10:30 | 1.48812 | 104.15230 | 3819 ft | 240 kts | 29° |
| 2026-05-06 10:30 | 1.50244 | 104.15948 | 3688 ft | 221 kts | 18° |
| 2026-05-06 10:31 | 1.51691 | 104.16209 | 3589 ft | 203 kts | 360° |
| 2026-05-06 10:31 | 1.53039 | 104.16036 | 3538 ft | 188 kts | 343° |
| 2026-05-06 10:31 | 1.54191 | 104.15539 | 3539 ft | 177 kts | 328° |
| 2026-05-06 10:31 | 1.55164 | 104.14803 | 3535 ft | 175 kts | 320° |
| 2026-05-06 10:32 | 1.56101 | 104.14032 | 3534 ft | 174 kts | 320° |
| 2026-05-06 10:32 | 1.57042 | 104.13264 | 3534 ft | 174 kts | 320° |
| 2026-05-06 10:32 | 1.57981 | 104.12497 | 3533 ft | 174 kts | 320° |
| 2026-05-06 10:32 | 1.58918 | 104.11731 | 3534 ft | 174 kts | 319° |
| 2026-05-06 10:33 | 1.59642 | 104.10800 | 3538 ft | 163 kts | 292° |
| 2026-05-06 10:33 | 1.59831 | 104.09732 | 3532 ft | 154 kts | 266° |
| 2026-05-06 10:33 | 1.59551 | 104.08728 | 3534 ft | 153 kts | 240° |
| 2026-05-06 10:33 | 1.58863 | 104.07935 | 3532 ft | 153 kts | 216° |
| 2026-05-06 10:34 | 1.57912 | 104.07463 | 3533 ft | 155 kts | 203° |
| 2026-05-06 10:34 | 1.56895 | 104.07034 | 3538 ft | 161 kts | 203° |
| 2026-05-06 10:34 | 1.55856 | 104.06596 | 3536 ft | 162 kts | 203° |
| 2026-05-06 10:34 | 1.54814 | 104.06156 | 3521 ft | 163 kts | 203° |
| 2026-05-06 10:35 | 1.53772 | 104.05716 | 3379 ft | 162 kts | 202° |
| 2026-05-06 10:35 | 1.52736 | 104.05279 | 3195 ft | 162 kts | 202° |
| 2026-05-06 10:35 | 1.51702 | 104.04842 | 2996 ft | 161 kts | 203° |
| 2026-05-06 10:35 | 1.50674 | 104.04408 | 2786 ft | 160 kts | 203° |
| 2026-05-06 10:36 | 1.49649 | 104.03975 | 2567 ft | 159 kts | 203° |
| 2026-05-06 10:36 | 1.48642 | 104.03550 | 2367 ft | 159 kts | 203° |
| 2026-05-06 10:36 | 1.47630 | 104.03122 | 2185 ft | 158 kts | 202° |
| 2026-05-06 10:36 | 1.46616 | 104.02694 | 1953 ft | 158 kts | 203° |
| 2026-05-06 10:37 | 1.45604 | 104.02267 | 1733 ft | 158 kts | 203° |
| 2026-05-06 10:37 | 1.44592 | 104.01840 | 1523 ft | 157 kts | 203° |
| 2026-05-06 10:37 | 1.43586 | 104.01415 | 1318 ft | 157 kts | 202° |
| 2026-05-06 10:37 | 1.42582 | 104.00991 | 1105 ft | 156 kts | 202° |
| 2026-05-06 10:38 | 1.41613 | 104.00582 | 902 ft | 147 kts | 203° |
| 2026-05-06 10:38 | 1.40692 | 104.00193 | 715 ft | 142 kts | 203° |
| 2026-05-06 10:38 | 1.39801 | 103.99810 | 529 ft | 140 kts | 204° |
| 2026-05-06 10:38 | 1.38897 | 103.99427 | 330 ft | 139 kts | 201° |
| 2026-05-06 10:39 | 1.38005 | 103.99060 | 151 ft | 139 kts | 204° |
| 2026-05-06 10:39 | 1.37120 | 103.98687 | 38 ft | 132 kts | 204° |
| 2026-05-06 10:39 | 1.36394 | 103.98374 | 31 ft | 94 kts | 202° |
| 2026-05-06 10:39 | 1.35911 | 103.98173 | 31 ft | 55 kts | 202° |
| 2026-05-06 10:40 | 1.35653 | 103.98115 | 31 ft | 32 kts | 179° |
| 2026-05-06 10:40 | 1.35539 | 103.98150 | 31 ft | 13 kts | 122° |
| 2026-05-06 10:40 | 1.35572 | 103.98223 | 31 ft | 14 kts | 30° |
| 2026-05-06 10:40 | 1.35675 | 103.98269 | 31 ft | 18 kts | 22° |
| 2026-05-06 10:41 | 1.35803 | 103.98322 | 31 ft | 22 kts | 22° |
| 2026-05-06 10:41 | 1.35953 | 103.98386 | 31 ft | 25 kts | 22° |
| 2026-05-06 10:41 | 1.36125 | 103.98457 | 29 ft | 28 kts | 22° |
| 2026-05-06 10:41 | 1.36289 | 103.98526 | 31 ft | 26 kts | 22° |
| 2026-05-06 10:42 | 1.36467 | 103.98600 | 31 ft | 29 kts | 22° |
| 2026-05-06 10:42 | 1.36630 | 103.98667 | 29 ft | 22 kts | 26° |
| 2026-05-06 10:42 | 1.36776 | 103.98736 | 31 ft | 21 kts | 22° |
| 2026-05-06 10:42 | 1.36837 | 103.98788 | 31 ft | 7 kts | 106° |
| 2026-05-06 10:43 | 1.36817 | 103.98848 | 31 ft | 11 kts | 111° |
| 2026-05-06 10:43 | 1.36782 | 103.98928 | 31 ft | 14 kts | 113° |
| 2026-05-06 10:43 | 1.36740 | 103.99030 | 31 ft | 18 kts | 112° |
| 2026-05-06 10:44 | 1.36576 | 103.99133 | 30 ft | 9 kts | 173° |
| 2026-05-06 10:44 | 1.36558 | 103.99129 | 30 ft | 3 kts | 214° |
| 2026-05-06 10:44 | 1.36546 | 103.99095 | 30 ft | 6 kts | 259° |
| 2026-05-06 10:44 | 1.36544 | 103.99079 | 31 ft | 2 kts | 263° |
| 2026-05-06 10:45 | 1.36542 | 103.99063 | 30 ft | 2 kts | 263° |
| 2026-05-06 10:45 | 1.36541 | 103.99052 | 31 ft | 0 kts | 263° |